Time;durP1;ratioP1;P1;durP2;ratioP2;P2;SDS_P1;SDS_P2;PMS_P1;PMS_P2;Temp;Humidity;BMP_temperature;BMP_pressure;BME280_temperature;BME280_humidity;BME280_pressure;Samples;Min_cycle;Max_cycle;Signal;HPM_P1;HPM_P2
2022/04/01 00:00:54;;;;;;;6.00;5.40;;;;;;;19.06;50.29;98612.19;5053298;28;20056;-77
2022/04/01 00:03:22;;;;;;;6.00;4.82;;;;;;;19.07;50.29;98608.47;5052529;28;20117;-78
2022/04/01 00:05:50;;;;;;;6.88;5.60;;;;;;;19.07;50.28;98608.47;5035426;28;20045;-77
2022/04/01 00:08:17;;;;;;;5.53;4.70;;;;;;;19.06;50.19;98614.88;5035749;28;20404;-77
2022/04/01 00:10:44;;;;;;;4.93;4.40;;;;;;;19.05;50.37;98611.34;5052626;28;20049;-77
2022/04/01 00:13:12;;;;;;;5.68;4.32;;;;;;;19.06;50.22;98623.75;5052899;28;20041;-77
2022/04/01 00:15:39;;;;;;;6.28;4.53;;;;;;;19.06;50.13;98617.56;5052375;28;20373;-77
2022/04/01 00:18:07;;;;;;;7.40;5.28;;;;;;;19.05;50.41;98622.09;5034664;28;20098;-77
2022/04/01 00:20:35;;;;;;;6.32;4.85;;;;;;;19.04;50.27;98617.75;5052422;28;20511;-77
2022/04/01 00:23:03;;;;;;;4.82;4.25;;;;;;;19.04;50.16;98617.75;5052816;28;20045;-77
2022/04/01 00:25:31;;;;;;;4.63;3.80;;;;;;;19.05;50.10;98614.03;5051631;28;20484;-77
2022/04/01 00:27:58;;;;;;;4.65;4.03;;;;;;;19.05;49.98;98622.09;5051990;28;20045;-77
2022/04/01 00:30:26;;;;;;;5.10;4.40;;;;;;;19.04;50.13;98620.44;5052233;28;20506;-77
2022/04/01 00:32:53;;;;;;;5.45;4.05;;;;;;;19.04;50.07;98615.06;5052429;28;20041;-77
2022/04/01 00:35:21;;;;;;;5.25;4.43;;;;;;;19.04;50.05;98620.44;5034195;28;20056;-77
2022/04/01 00:37:49;;;;;;;5.90;4.45;;;;;;;19.04;50.11;98617.75;5035238;28;20060;-77
2022/04/01 00:40:16;;;;;;;4.93;4.18;;;;;;;19.03;50.07;98611.53;5034174;28;20523;-77
2022/04/01 00:42:45;;;;;;;4.90;4.28;;;;;;;19.03;49.92;98622.25;5033960;28;20057;-77
2022/04/01 00:45:15;;;;;;;5.72;4.35;;;;;;;19.02;50.13;98617.09;5051827;28;20041;-77
2022/04/01 00:47:42;;;;;;;5.05;4.15;;;;;;;19.02;49.97;98607.19;5034258;28;20059;-77
2022/04/01 00:50:10;;;;;;;6.25;4.60;;;;;;;19.02;49.87;98611.72;5051697;28;20208;-77
2022/04/01 00:52:38;;;;;;;5.45;4.22;;;;;;;19.01;50.01;98608.22;5051963;28;20060;-77
2022/04/01 00:55:08;;;;;;;5.40;4.22;;;;;;;19.01;49.93;98602.00;5052481;28;20048;-77
2022/04/01 00:57:37;;;;;;;4.85;3.83;;;;;;;19.02;49.90;98592.94;5052299;28;20045;-77
2022/04/01 01:00:08;;;;;;;14.45;5.00;;;;;;;19.02;49.99;98595.63;5033634;28;20049;-77
2022/04/01 01:02:39;;;;;;;6.88;4.32;;;;;;;19.01;49.82;98591.28;5051853;28;20507;-77
2022/04/01 01:05:08;;;;;;;4.15;3.70;;;;;;;19.01;49.89;98589.44;5051872;28;20041;-77
2022/04/01 01:07:40;;;;;;;4.78;3.63;;;;;;;19.00;49.58;98587.78;5052968;28;20045;-77
2022/04/01 01:10:10;;;;;;;5.70;3.90;;;;;;;19.01;49.92;98594.81;5052522;28;20045;-77
2022/04/01 01:12:39;;;;;;;4.82;3.70;;;;;;;19.00;49.83;98592.31;5052284;28;20049;-77
2022/04/01 01:15:10;;;;;;;6.63;3.95;;;;;;;19.00;49.87;98581.59;5033740;28;20053;-77
2022/04/01 01:17:39;;;;;;;4.30;3.72;;;;;;;19.01;49.95;98583.25;5051974;28;20045;-77
2022/04/01 01:20:12;;;;;;;5.85;4.15;;;;;;;19.00;49.89;98579.72;5018765;28;20089;-77
2022/04/01 01:22:44;;;;;;;4.90;4.00;;;;;;;19.00;49.78;98581.59;5052177;28;20048;-77
2022/04/01 01:25:13;;;;;;;4.10;3.70;;;;;;;18.99;49.96;98571.84;5052543;28;20048;-77
2022/04/01 01:27:42;;;;;;;4.93;3.78;;;;;;;18.99;49.78;98571.84;5034732;28;20056;-77
2022/04/01 01:30:10;;;;;;;4.00;3.58;;;;;;;18.98;49.87;98573.72;5051732;28;20045;-77
2022/04/01 01:32:39;;;;;;;4.78;3.95;;;;;;;18.99;49.88;98563.81;5033242;28;20060;-77
2022/04/01 01:35:11;;;;;;;4.82;3.55;;;;;;;18.98;50.01;98562.97;5051463;28;20045;-77
2022/04/01 01:37:38;;;;;;;4.53;3.70;;;;;;;18.98;49.88;98562.16;5054102;28;20487;-77
2022/04/01 01:40:08;;;;;;;4.65;3.55;;;;;;;18.98;49.61;98556.78;5055036;28;20049;-77
2022/04/01 01:42:36;;;;;;;3.92;3.30;;;;;;;18.98;49.80;98562.97;5055185;28;20041;-77
2022/04/01 01:45:05;;;;;;;4.75;3.80;;;;;;;18.97;49.73;98550.59;5036758;28;20067;-77
2022/04/01 01:47:32;;;;;;;4.03;3.30;;;;;;;18.97;49.75;98547.91;5036669;28;20052;-77
2022/04/01 01:55:31;;;;;;;5.95;3.80;;;;;;;18.97;49.85;98545.25;5037155;28;20060;-77
2022/04/01 01:58:03;;;;;;;5.32;3.60;;;;;;;18.97;49.90;98545.25;5036701;28;20060;-77
2022/04/01 02:00:32;;;;;;;4.07;3.53;;;;;;;18.96;49.79;98530.19;5036795;28;20049;-77
2022/04/01 02:02:59;;;;;;;4.15;3.17;;;;;;;18.96;49.86;98532.03;5035641;28;20048;-77
2022/04/01 02:05:27;;;;;;;5.05;3.67;;;;;;;18.96;49.87;98542.75;5036429;28;20045;-77
2022/04/01 02:07:56;;;;;;;4.15;3.45;;;;;;;18.96;49.92;98543.59;5036407;28;20049;-76
2022/04/01 02:10:23;;;;;;;4.47;3.30;;;;;;;18.96;49.86;98532.84;5037695;28;20049;-77
2022/04/01 02:12:51;;;;;;;3.78;3.10;;;;;;;18.95;49.62;98533.84;5036601;28;20045;-77
2022/04/01 02:15:18;;;;;;;5.65;3.78;;;;;;;18.96;49.85;98542.75;5035922;28;20503;-77
2022/04/01 02:17:46;;;;;;;3.85;3.20;;;;;;;18.96;49.77;98537.38;5036190;28;20049;-77
2022/04/01 02:20:14;;;;;;;4.80;3.20;;;;;;;18.95;49.69;98530.34;5036617;28;20511;-78
2022/04/01 02:22:43;;;;;;;3.78;2.90;;;;;;;18.94;49.57;98524.16;5036159;28;20064;-78
2022/04/01 02:25:12;;;;;;;4.45;3.13;;;;;;;18.95;49.70;98530.34;5035974;28;20053;-78
2022/04/01 02:27:40;;;;;;;4.10;3.20;;;;;;;18.94;49.63;98523.31;5054205;28;20045;-78
2022/04/01 02:30:10;;;;;;;3.83;3.35;;;;;;;18.95;49.61;98522.28;5035978;28;20419;-77
2022/04/01 02:32:44;;;;;;;3.72;3.22;;;;;;;18.93;49.63;98517.13;5060582;28;20060;-78
2022/04/01 02:35:18;;;;;;;4.18;3.13;;;;;;;18.94;49.54;98517.97;5038158;28;20052;-78
2022/04/01 02:37:47;;;;;;;4.38;3.13;;;;;;;18.94;49.36;98509.91;5036120;28;20056;-77
2022/04/01 02:40:15;;;;;;;3.60;2.72;;;;;;;18.93;49.71;98511.78;5036029;28;20060;-77
2022/04/01 02:42:42;;;;;;;4.63;3.25;;;;;;;18.92;49.47;98507.44;5036037;28;20068;-77
2022/04/01 02:45:16;;;;;;;4.18;3.50;;;;;;;18.93;49.51;98503.72;5036233;28;20053;-77
2022/04/01 02:47:44;;;;;;;3.35;2.92;;;;;;;18.94;49.69;98504.56;5036292;28;20053;-77
2022/04/01 02:50:12;;;;;;;4.05;3.00;;;;;;;18.93;49.66;98503.72;5053840;28;20068;-77
2022/04/01 02:52:39;;;;;;;4.15;3.55;;;;;;;18.93;49.55;98506.41;5054325;28;20052;-77
2022/04/01 02:55:07;;;;;;;4.80;3.53;;;;;;;18.93;49.57;98510.94;5035877;28;20049;-77
2022/04/01 02:57:36;;;;;;;4.07;3.40;;;;;;;18.92;49.43;98498.53;5035444;28;20063;-77
2022/04/01 03:00:09;;;;;;;4.82;3.10;;;;;;;18.92;49.83;98504.75;5036965;28;20056;-77
2022/04/01 03:02:50;;;;;;;3.15;2.60;;;;;;;18.91;49.54;98500.38;5035846;28;20060;-77
2022/04/01 03:05:18;;;;;;;4.38;3.30;;;;;;;18.91;49.61;98504.91;5034991;28;20053;-77
2022/04/01 03:07:46;;;;;;;3.20;2.80;;;;;;;18.91;49.61;98504.91;5037274;28;20053;-77
2022/04/01 03:10:14;;;;;;;3.70;3.10;;;;;;;18.91;49.58;98507.59;5036553;28;20056;-76
2022/04/01 03:12:41;;;;;;;4.00;2.92;;;;;;;18.91;49.58;98511.09;5035715;28;20049;-77
2022/04/01 03:15:29;;;;;;;3.60;2.78;;;;;;;18.92;49.39;98506.56;5045580;28;20052;-77
2022/04/01 03:18:28;;;;;;;5.47;2.55;;;;;;;18.91;49.77;98502.25;5013095;28;20430;-77
2022/04/01 03:20:56;;;;;;;3.00;2.65;;;;;;;18.91;49.58;98513.78;5013357;28;20410;-77
2022/04/01 03:23:24;;;;;;;4.15;3.30;;;;;;;18.92;49.47;98522.66;4996299;28;20100;-77
2022/04/01 03:25:54;;;;;;;3.20;2.63;;;;;;;18.91;49.54;98524.50;5013084;28;20046;-77
2022/04/01 03:28:42;;;;;;;2.85;2.13;;;;;;;18.90;49.50;98519.34;5011524;28;20061;-77
2022/04/01 03:31:10;;;;;;;4.72;3.08;;;;;;;18.91;49.46;98512.97;5012498;28;20042;-77
2022/04/01 03:33:38;;;;;;;3.33;2.55;;;;;;;18.90;49.39;98514.81;5013056;28;20528;-77
2022/04/01 03:36:06;;;;;;;3.83;2.63;;;;;;;18.90;49.46;98516.66;4996378;28;20065;-77
2022/04/01 03:38:38;;;;;;;4.15;2.75;;;;;;;18.89;49.26;98521.19;5013088;28;20076;-77
2022/04/01 03:41:10;;;;;;;3.72;2.55;;;;;;;18.89;49.26;98512.34;4994857;28;20061;-77
2022/04/01 03:43:40;;;;;;;3.40;2.50;;;;;;;18.90;49.56;98508.63;5012691;28;20052;-77
2022/04/01 03:46:13;;;;;;;3.20;2.58;;;;;;;18.89;49.44;98509.66;4995960;28;20451;-77
2022/04/01 03:49:00;;;;;;;4.78;2.35;;;;;;;18.89;49.17;98515.00;4994986;28;20058;-77
2022/04/01 03:51:30;;;;;;;4.32;2.92;;;;;;;18.89;49.53;98509.66;5012031;28;20093;-77
2022/04/01 03:54:04;;;;;;;3.45;2.40;;;;;;;18.89;49.30;98504.28;5010079;28;20045;-77
2022/04/01 03:57:12;;;;;;;3.17;2.45;;;;;;;18.88;49.20;98502.59;4992120;28;20054;-77
2022/04/01 03:59:58;;;;;;;3.20;2.60;;;;;;;18.89;49.23;98515.00;4998478;28;20434;-77
2022/04/01 04:02:45;;;;;;;2.65;2.28;;;;;;;18.87;49.21;98520.53;4976359;28;20073;-78
2022/04/01 04:05:19;;;;;;;3.83;2.63;;;;;;;18.87;49.14;98520.53;4976132;28;20046;-77
2022/04/01 04:07:49;;;;;;;3.22;2.60;;;;;;;18.87;49.11;98511.66;4992772;28;20050;-77
2022/04/01 04:10:21;;;;;;;3.78;2.50;;;;;;;18.87;49.27;98515.19;4976446;28;20058;-77
2022/04/01 04:13:06;;;;;;;4.68;2.75;;;;;;;18.88;49.20;98513.31;4990643;28;20433;-77
2022/04/01 04:15:49;;;;;;;3.97;2.78;;;;;;;18.87;49.31;98512.50;4975856;28;20054;-77
2022/04/01 04:18:20;;;;;;;4.22;2.90;;;;;;;18.87;49.20;98531.25;4976053;28;20456;-77
2022/04/01 04:21:15;;;;;;;3.30;2.50;;;;;;;18.86;49.21;98532.28;4974706;28;20053;-77
2022/04/01 04:23:50;;;;;;;3.00;2.35;;;;;;;18.86;49.25;98532.28;4991662;28;20514;-77
2022/04/01 04:26:37;;;;;;;3.80;2.63;;;;;;;18.86;49.31;98526.94;4991661;28;20418;-78
2022/04/01 04:29:13;;;;;;;3.20;2.40;;;;;;;18.87;49.15;98533.13;5031561;28;20064;-77
2022/04/01 04:31:58;;;;;;;4.35;2.63;;;;;;;18.86;49.20;98531.47;5034433;28;20057;-77
2022/04/01 04:34:34;;;;;;;3.03;2.17;;;;;;;18.88;49.19;98535.63;5034148;28;20514;-77
2022/04/01 04:37:08;;;;;;;3.42;2.50;;;;;;;18.86;49.22;98534.97;5034666;28;20049;-77
2022/04/01 04:39:43;;;;;;;2.97;2.15;;;;;;;18.86;49.17;98534.97;5034371;28;20049;-77
2022/04/01 04:42:13;;;;;;;3.50;2.17;;;;;;;18.85;49.19;98545.88;5034476;28;20064;-77
2022/04/01 04:44:44;;;;;;;3.03;2.38;;;;;;;18.85;49.07;98541.34;5035107;28;20045;-77
2022/04/01 04:47:18;;;;;;;3.53;2.35;;;;;;;18.86;49.08;98556.41;5034447;28;20053;-77
2022/04/01 04:49:47;;;;;;;3.53;2.80;;;;;;;18.85;48.95;98557.44;5034490;28;20045;-77
2022/04/01 04:52:17;;;;;;;3.35;2.40;;;;;;;18.85;49.12;98557.44;5034022;28;20049;-77
2022/04/01 04:54:50;;;;;;;3.55;2.55;;;;;;;18.85;49.16;98562.81;5033901;28;20396;-76
2022/04/01 04:57:26;;;;;;;4.45;2.22;;;;;;;18.85;49.02;98570.00;5033946;28;20049;-77
2022/04/01 04:59:57;;;;;;;4.22;2.33;;;;;;;18.85;49.24;98561.97;5034124;28;20423;-77
2022/04/01 05:02:58;;;;;;;4.18;2.40;;;;;;;18.84;49.17;98571.88;5033999;28;20057;-76
2022/04/01 05:05:32;;;;;;;4.00;2.38;;;;;;;18.84;49.01;98571.88;5033472;28;20057;-77
2022/04/01 05:08:40;;;;;;;3.03;2.38;;;;;;;18.84;49.11;98587.09;5052291;28;20353;-76
2022/04/01 05:11:44;;;;;;;;;;;;;;;18.84;48.92;98590.63;5019595;28;20057;-77
2022/04/01 05:14:33;;;;;;;2.88;2.30;;;;;;;18.84;48.93;98587.94;5035564;28;19931;-77
2022/04/01 05:17:04;;;;;;;3.83;2.42;;;;;;;18.84;48.92;98587.09;5017555;28;20060;-77
2022/04/01 05:19:36;;;;;;;3.90;2.33;;;;;;;18.83;49.00;98594.31;5034121;28;20056;-77
2022/04/01 05:22:07;;;;;;;3.17;2.22;;;;;;;18.83;48.92;98596.97;5033206;28;20049;-78
2022/04/01 05:24:53;;;;;;;3.20;2.42;;;;;;;18.83;48.89;98613.06;5051647;28;20044;-78
2022/04/01 05:27:28;;;;;;;3.13;2.20;;;;;;;18.84;48.81;98605.84;5034591;28;20045;-77
2022/04/01 05:30:18;;;;;;;4.78;2.17;;;;;;;18.83;48.91;98607.72;5034046;28;20057;-77
2022/04/01 05:33:06;;;;;;;3.20;2.40;;;;;;;18.83;48.79;98613.06;5033544;28;20049;-77
2022/04/01 05:35:43;;;;;;;5.20;2.22;;;;;;;18.83;48.95;98606.88;5050033;28;20481;-77
2022/04/01 05:38:12;;;;;;;4.60;2.30;;;;;;;18.83;48.93;98612.25;5033439;28;20064;-77
2022/04/01 05:40:40;;;;;;;3.28;2.20;;;;;;;18.82;48.70;98610.59;5051503;28;20487;-77
2022/04/01 05:43:13;;;;;;;3.50;2.60;;;;;;;18.82;48.80;98610.59;5033386;28;20049;-77
2022/04/01 05:45:44;;;;;;;;;;;;;;;18.82;48.62;98622.13;5058267;28;20055;-77
2022/04/01 05:48:17;;;;;;;3.63;2.47;;;;;;;18.82;48.68;98624.00;5033447;28;20398;-77
2022/04/01 05:50:45;;;;;;;3.20;2.50;;;;;;;18.81;48.80;98623.16;5033542;28;20063;-77
2022/04/01 05:53:14;;;;;;;3.55;2.17;;;;;;;18.81;48.72;98614.28;5033329;28;20064;-77
2022/04/01 05:55:51;;;;;;;4.18;2.28;;;;;;;18.81;48.79;98615.13;5033594;28;20049;-77
2022/04/01 05:58:18;;;;;;;4.00;2.33;;;;;;;18.81;48.73;98603.56;5033377;28;20057;-77
2022/04/01 06:01:07;;;;;;;3.65;2.30;;;;;;;18.82;48.76;98615.94;5032974;28;20053;-77
2022/04/01 06:03:59;;;;;;;4.45;2.47;;;;;;;18.81;48.61;98614.28;5032891;28;20060;-77
2022/04/01 06:06:32;;;;;;;3.38;2.00;;;;;;;18.81;48.74;98622.31;5032774;28;20505;-77
2022/04/01 06:09:44;;;;;;;3.60;2.00;;;;;;;18.81;48.93;98625.00;5033395;28;20057;-77
2022/04/01 06:12:45;;;;;;;2.95;2.25;;;;;;;18.81;48.74;98627.69;5052124;28;20104;-77
2022/04/01 06:15:49;;;;;;;2.75;2.10;;;;;;;18.80;48.82;98616.13;5044279;28;20404;-77
2022/04/01 06:19:15;;;;;;;4.45;2.30;;;;;;;18.80;48.81;98615.28;5044064;28;20060;-77
2022/04/01 06:21:54;;;;;;;4.22;2.78;;;;;;;18.80;48.81;98617.97;4956710;28;20058;-77
2022/04/01 06:24:41;;;;;;;4.57;2.67;;;;;;;18.80;48.82;98624.19;4958684;28;20070;-77
2022/04/01 06:27:12;;;;;;;3.47;2.47;;;;;;;18.81;48.93;98627.69;4977177;28;20053;-77
2022/04/01 06:29:43;;;;;;;4.10;2.60;;;;;;;18.81;48.71;98625.00;4960680;28;20054;-77
2022/04/01 06:32:48;;;;;;;3.22;2.20;;;;;;;18.79;48.74;98627.84;4976918;28;20442;-78
2022/04/01 06:35:25;;;;;;;3.17;2.45;;;;;;;18.79;48.98;98633.22;4959415;28;20057;-78
2022/04/01 06:38:25;;;;;;;4.43;2.50;;;;;;;18.81;48.91;98638.41;4973345;28;20055;-77
2022/04/01 06:40:56;;;;;;;3.45;2.63;;;;;;;18.80;49.18;98634.03;4959570;28;20070;-77
2022/04/01 06:43:34;;;;;;;3.47;2.58;;;;;;;18.80;48.97;98634.03;4975699;28;20391;-77
2022/04/01 06:46:20;;;;;;;4.07;2.80;;;;;;;18.80;49.06;98634.91;4982708;28;20053;-77
2022/04/01 06:48:52;;;;;;;4.30;2.75;;;;;;;18.81;49.26;98638.41;5017860;28;20381;-77
2022/04/01 06:51:39;;;;;;;4.32;2.85;;;;;;;18.81;49.44;98633.88;5061646;28;20441;-77
2022/04/01 06:54:25;;;;;;;3.72;2.47;;;;;;;18.83;49.23;98641.72;5061572;28;20055;-80
2022/04/01 06:57:10;;;;;;;4.45;2.50;;;;;;;18.84;49.34;98646.06;5038752;28;20060;-84
2022/04/01 06:59:58;;;;;;;3.90;2.67;;;;;;;18.85;49.61;98647.75;4992259;28;20054;-76
2022/04/01 07:02:25;;;;;;;4.15;3.00;;;;;;;18.85;49.86;98655.81;5003519;28;20050;-76
2022/04/01 07:04:53;;;;;;;4.65;2.55;;;;;;;18.85;49.62;98659.31;5012944;28;20053;-76
2022/04/01 07:07:20;;;;;;;3.75;3.13;;;;;;;18.86;49.45;98665.50;5012438;28;20050;-76
2022/04/01 07:09:48;;;;;;;4.85;3.03;;;;;;;18.86;49.48;98660.97;5012283;28;20061;-79
2022/04/01 07:12:16;;;;;;;3.67;2.50;;;;;;;18.87;49.27;98661.78;5011140;28;20062;-81
2022/04/01 07:14:44;;;;;;;4.18;3.17;;;;;;;18.88;49.66;98660.78;5011810;28;20056;-77
2022/04/01 07:17:11;;;;;;;4.53;3.40;;;;;;;18.89;49.66;98657.09;5012032;28;20072;-78
2022/04/01 07:19:39;;;;;;;5.65;3.25;;;;;;;18.91;49.48;98652.38;5011186;28;20049;-77
2022/04/01 07:22:06;;;;;;;5.13;3.72;;;;;;;18.92;49.56;98656.72;5011126;28;20058;-78
2022/04/01 07:24:33;;;;;;;7.32;4.05;;;;;;;18.93;49.29;98658.41;5011718;28;20057;-78
2022/04/01 07:27:01;;;;;;;5.63;3.88;;;;;;;18.93;49.23;98666.44;5011861;28;20046;-77
2022/04/01 07:29:28;;;;;;;8.35;4.43;;;;;;;18.94;48.85;98657.38;5012048;28;20096;-78
2022/04/01 07:34:43;;;;;;;6.05;4.18;;;;;;;18.95;48.88;98664.41;5011396;28;20053;-81
2022/04/01 07:37:12;;;;;;;4.45;3.90;;;;;;;18.96;48.93;98661.56;5022037;28;20065;-77
2022/04/01 07:39:59;;;;;;;5.38;3.80;;;;;;;18.97;48.94;98665.91;5032680;28;20053;-75
2022/04/01 07:42:28;;;;;;;4.18;3.42;;;;;;;18.97;49.10;98665.91;5014889;28;20380;-76
2022/04/01 07:44:56;;;;;;;6.13;4.45;;;;;;;18.98;49.05;98677.44;5031814;28;20041;-77
2022/04/01 07:47:24;;;;;;;3.92;3.42;;;;;;;18.99;48.84;98687.16;5032869;28;20067;-77
2022/04/01 07:49:52;;;;;;;4.30;3.78;;;;;;;19.01;48.94;98682.47;5032749;28;20045;-77
2022/04/01 07:52:21;;;;;;;4.68;3.22;;;;;;;19.03;49.20;98677.72;5014072;28;20072;-76
2022/04/01 07:54:49;;;;;;;5.63;3.80;;;;;;;19.03;49.23;98672.38;5033188;28;20067;-75
2022/04/01 07:57:18;;;;;;;6.65;4.40;;;;;;;19.05;49.00;98681.09;5032587;28;20427;-76
2022/04/01 07:59:46;;;;;;;5.05;3.63;;;;;;;19.08;48.92;98679.88;5033312;28;20046;-75
2022/04/01 08:02:15;;;;;;;4.45;3.28;;;;;;;19.08;49.06;98683.41;5033338;28;20049;-76
2022/04/01 08:04:42;;;;;;;5.20;3.55;;;;;;;19.09;48.93;98681.56;5016225;28;20049;-79
2022/04/01 08:07:15;;;;;;;4.22;3.20;;;;;;;19.11;49.06;98674.16;5033287;28;20050;-78
2022/04/01 08:09:43;;;;;;;4.35;3.10;;;;;;;19.14;49.34;98676.47;5032488;28;20492;-80
2022/04/01 08:12:11;;;;;;;3.50;3.10;;;;;;;19.15;49.11;98675.44;5033001;28;20424;-76
2022/04/01 08:14:40;;;;;;;4.38;3.85;;;;;;;19.17;49.31;98676.94;5033256;28;20049;-77
2022/04/01 08:17:12;;;;;;;4.72;3.47;;;;;;;19.18;49.00;98672.41;5033186;28;20049;-77
2022/04/01 08:19:40;;;;;;;4.85;3.47;;;;;;;19.20;49.02;98681.94;5032789;28;20048;-77
2022/04/01 08:22:09;;;;;;;5.05;4.07;;;;;;;19.20;49.14;98675.72;5032551;28;20053;-76
2022/04/01 08:24:37;;;;;;;7.05;3.80;;;;;;;19.20;49.36;98676.59;5032233;28;20056;-79
2022/04/01 08:27:04;;;;;;;6.00;3.60;;;;;;;19.22;49.26;98677.22;5032435;28;20048;-77
2022/04/01 08:29:31;;;;;;;4.90;3.38;;;;;;;19.21;49.29;98680.09;5015367;28;20396;-77
2022/04/01 08:31:59;;;;;;;4.82;3.65;;;;;;;19.23;49.35;98689.59;5034417;27;20393;-78
2022/04/01 08:34:26;;;;;;;4.40;3.70;;;;;;;19.23;49.45;98688.78;5032291;28;20053;-76
2022/04/01 08:36:54;;;;;;;4.43;3.55;;;;;;;19.24;49.28;98693.13;5031985;28;20038;-76
2022/04/01 08:42:59;;;;;;;6.25;3.28;;;;;;;19.27;49.29;98690.06;5014190;28;20409;-80
2022/04/01 08:45:27;;;;;;;5.88;3.53;;;;;;;19.29;49.59;98687.22;5031445;28;20052;-77
2022/04/01 08:47:55;;;;;;;6.40;3.00;;;;;;;19.29;49.32;98690.75;5013618;28;20076;-78
2022/04/01 08:50:22;;;;;;;6.60;3.70;;;;;;;19.32;49.14;98692.19;5012803;28;20050;-76
2022/04/01 08:52:50;;;;;;;8.13;4.30;;;;;;;19.31;49.36;98683.31;5030726;28;20045;-79
2022/04/01 08:55:17;;;;;;;7.72;4.30;;;;;;;19.33;48.99;98696.56;5031023;28;20046;-77
2022/04/01 08:57:45;;;;;;;6.38;3.70;;;;;;;19.33;49.11;98697.41;5031522;28;20049;-81
2022/04/01 09:00:15;;;;;;;4.72;3.40;;;;;;;19.35;49.25;98689.16;5014586;28;20041;-78
2022/04/01 09:02:44;;;;;;;3.80;3.10;;;;;;;19.35;49.09;98698.03;5031610;28;20063;-76
2022/04/01 09:05:12;;;;;;;7.43;3.72;;;;;;;19.35;49.02;98706.09;5032047;28;20049;-79
2022/04/01 09:07:39;;;;;;;7.55;3.47;;;;;;;19.37;48.95;98705.94;5032918;28;20046;-76
2022/04/01 09:10:08;;;;;;;5.75;4.00;;;;;;;19.35;48.90;98700.72;5014407;28;20050;-76
2022/04/01 09:12:51;;;;;;;6.10;3.85;;;;;;;19.36;48.90;98701.56;5031547;28;20058;-78
2022/04/01 09:15:19;;;;;;;4.53;3.22;;;;;;;19.36;48.72;98690.81;5031784;28;20053;-78
2022/04/01 09:17:48;;;;;;;5.55;4.00;;;;;;;19.35;48.77;98690.00;5031655;28;20042;-79
2022/04/01 09:20:16;;;;;;;4.60;3.40;;;;;;;19.37;48.86;98687.13;4997952;28;20435;-79
2022/04/01 09:22:45;;;;;;;3.83;3.17;;;;;;;19.38;48.91;98694.16;5031291;28;20046;-80
2022/04/01 09:25:14;;;;;;;4.63;3.10;;;;;;;19.39;49.00;98698.50;5013247;28;20054;-83
2022/04/01 09:27:50;;;;;;;6.53;3.85;;;;;;;19.39;48.94;98693.13;5030587;28;20053;-76
2022/04/01 09:30:30;;;;;;;4.57;3.10;;;;;;;19.40;48.99;98692.94;5030720;28;20488;-76
2022/04/01 09:33:01;;;;;;;6.97;3.20;;;;;;;19.40;48.98;98689.44;5030729;28;20046;-77
2022/04/01 09:35:31;;;;;;;7.20;3.50;;;;;;;19.41;49.01;98694.63;5013029;28;20064;-77
2022/04/01 09:38:02;;;;;;;6.07;4.00;;;;;;;19.42;48.44;98698.16;5031426;28;20049;-77
2022/04/01 09:40:30;;;;;;;7.00;3.70;;;;;;;19.41;48.41;98694.63;5013800;28;20057;-78
2022/04/01 09:43:07;;;;;;;4.53;3.13;;;;;;;19.41;48.41;98704.53;5030961;28;20408;-77
2022/04/01 09:45:35;;;;;;;4.22;3.83;;;;;;;19.42;48.82;98698.16;5030660;28;20049;-76
2022/04/01 09:48:08;;;;;;;8.35;3.88;;;;;;;19.43;48.97;98703.31;5031095;28;20381;-76
2022/04/01 09:50:42;;;;;;;6.75;4.93;;;;;;;19.42;48.17;98698.16;5030578;28;20053;-75
2022/04/01 09:53:17;;;;;;;6.22;4.53;;;;;;;19.39;48.37;98696.66;5029982;28;20041;-77
2022/04/01 09:55:47;;;;;;;6.47;4.07;;;;;;;19.40;48.23;98692.13;5012796;28;20404;-77
2022/04/01 09:58:16;;;;;;;4.57;3.90;;;;;;;19.40;48.43;98702.84;5032244;28;20053;-76
2022/04/01 10:00:45;;;;;;;4.35;3.60;;;;;;;19.41;48.62;98699.16;5016509;28;20149;-77
2022/04/01 10:03:15;;;;;;;6.72;3.72;;;;;;;19.41;48.71;98697.31;5033428;28;20056;-77
2022/04/01 10:05:43;;;;;;;7.97;3.47;;;;;;;19.42;48.73;98695.47;5032883;28;20408;-77
2022/04/01 10:08:13;;;;;;;5.93;4.03;;;;;;;19.42;48.45;98690.09;5015422;28;20060;-76
2022/04/01 10:10:43;;;;;;;5.38;3.53;;;;;;;19.42;48.48;98688.25;5033361;28;20052;-79
2022/04/01 10:13:21;;;;;;;6.20;3.25;;;;;;;19.44;48.58;98690.72;5014818;28;20045;-75
2022/04/01 10:15:50;;;;;;;6.95;3.17;;;;;;;19.45;48.79;98692.41;5032905;28;20049;-76
2022/04/01 10:18:41;;;;;;;3.70;2.90;;;;;;;19.46;48.66;98694.06;5033208;28;20049;-77
2022/04/01 10:21:09;;;;;;;4.20;2.92;;;;;;;19.47;48.70;98695.75;5032961;28;20061;-78
2022/04/01 10:23:43;;;;;;;6.13;2.95;;;;;;;19.47;48.58;98687.69;5016158;28;20053;-76
2022/04/01 10:26:15;;;;;;;4.47;3.03;;;;;;;19.47;48.42;98679.63;5033156;28;20046;-77
2022/04/01 10:28:45;;;;;;;4.65;3.00;;;;;;;19.48;48.48;98689.34;5032692;28;20049;-76
2022/04/01 10:31:19;;;;;;;4.40;2.95;;;;;;;19.48;48.43;98692.03;5033137;28;20049;-76
2022/04/01 10:33:47;;;;;;;4.85;3.22;;;;;;;19.48;48.59;98692.84;5015278;28;20045;-77
2022/04/01 10:36:21;;;;;;;6.03;3.08;;;;;;;19.48;48.41;98690.16;5032663;28;20802;-77
2022/04/01 10:39:07;;;;;;;4.35;2.88;;;;;;;19.48;48.43;98694.72;5032862;28;20052;-78
2022/04/01 10:41:35;;;;;;;3.83;2.72;;;;;;;19.50;48.42;98698.06;5032615;28;20401;-75
2022/04/01 10:44:03;;;;;;;3.90;2.80;;;;;;;19.49;48.57;98697.22;5032400;28;20060;-75
2022/04/01 10:46:30;;;;;;;3.85;2.80;;;;;;;19.49;48.40;98694.53;5015050;28;20058;-80
2022/04/01 10:52:19;;;;;;;3.88;2.63;;;;;;;19.50;48.25;98695.38;5033236;28;20072;-77
2022/04/01 10:54:48;;;;;;;5.13;3.22;;;;;;;19.50;48.33;98693.53;5032519;28;20054;-78
2022/04/01 10:57:28;;;;;;;4.68;2.50;;;;;;;19.50;48.27;98696.19;5032386;28;20417;-76
2022/04/01 11:00:00;;;;;;;3.75;2.80;;;;;;;19.50;48.32;98690.84;5032397;28;20049;-75
2022/04/01 11:02:27;;;;;;;3.97;3.05;;;;;;;19.51;48.27;98692.50;5032568;28;20102;-76
2022/04/01 11:04:55;;;;;;;3.58;2.80;;;;;;;19.50;48.32;98693.53;5032467;28;20045;-76
2022/04/01 11:07:23;;;;;;;4.88;2.97;;;;;;;19.52;48.29;98694.16;5032523;28;20105;-78
2022/04/01 11:09:51;;;;;;;3.30;2.72;;;;;;;19.52;48.13;98694.16;5015423;28;20057;-76
2022/04/01 11:12:19;;;;;;;4.20;2.80;;;;;;;19.52;47.93;98693.31;5032562;28;20406;-77
2022/04/01 11:14:59;;;;;;;4.32;2.72;;;;;;;19.53;47.86;98695.00;5031698;28;20056;-77
2022/04/01 11:17:41;;;;;;;5.55;2.83;;;;;;;19.52;47.81;98701.38;5032953;28;20072;-81
2022/04/01 11:20:13;;;;;;;5.53;3.28;;;;;;;19.54;48.13;98695.84;5032750;28;20045;-75
2022/04/01 11:22:40;;;;;;;4.85;3.45;;;;;;;19.55;48.87;98697.50;5032232;28;20143;-76
2022/04/01 11:25:14;;;;;;;5.55;3.28;;;;;;;19.55;50.92;98702.88;5014355;28;20049;-76
2022/04/01 11:27:56;;;;;;;6.47;3.70;;;;;;;19.54;53.96;98698.53;5014586;28;20049;-75
2022/04/01 11:30:28;;;;;;;4.47;3.10;;;;;;;19.51;54.17;98699.72;5015080;28;20056;-77
2022/04/01 11:32:58;;;;;;;5.45;2.90;;;;;;;19.51;54.68;98692.50;5031680;28;20580;-76
2022/04/01 11:35:35;;;;;;;3.58;2.70;;;;;;;19.48;55.15;98697.41;5032094;28;20397;-76
2022/04/01 11:38:04;;;;;;;4.88;3.40;;;;;;;19.48;55.10;98700.06;5032082;28;20041;-75
2022/04/01 11:40:33;;;;;;;3.88;3.20;;;;;;;19.46;54.77;98696.75;5031739;28;20381;-75
2022/04/01 11:43:04;;;;;;;3.80;3.08;;;;;;;19.46;54.78;98699.44;5031488;28;20513;-74
2022/04/01 11:45:35;;;;;;;4.60;3.33;;;;;;;19.44;55.51;98696.94;5032145;28;20049;-73
2022/04/01 11:48:32;;;;;;;7.78;4.15;;;;;;;19.44;55.25;98698.78;5031093;28;20037;-74
2022/04/01 11:51:10;;;;;;;5.53;3.70;;;;;;;19.43;54.96;98699.81;5031160;28;20045;-75
2022/04/01 11:53:49;;;;;;;4.88;3.40;;;;;;;19.42;55.04;98698.97;5031406;28;20407;-75
2022/04/01 11:56:18;;;;;;;4.00;3.15;;;;;;;19.42;55.60;98693.59;5014956;28;20054;-75
2022/04/01 11:59:00;;;;;;;4.35;3.33;;;;;;;19.41;55.78;98696.50;5032050;28;20049;-75
2022/04/01 12:01:34;;;;;;;4.75;3.10;;;;;;;19.40;55.95;98698.31;5010466;28;20065;-75
2022/04/01 12:04:06;;;;;;;;;;;;;;;19.39;56.11;98699.34;5011929;28;20054;-75
2022/04/01 12:09:28;;;;;;;4.30;3.28;;;;;;;19.37;56.55;98687.97;5011476;28;20046;-76
2022/04/01 12:11:58;;;;;;;6.25;3.70;;;;;;;19.38;56.38;98689.63;5011922;28;20049;-75
2022/04/01 12:14:26;;;;;;;4.65;3.63;;;;;;;19.37;56.68;98690.66;5112700;27;20397;-75
2022/04/01 12:16:54;;;;;;;11.23;4.03;;;;;;;19.39;57.11;98687.78;5063772;28;20358;-76
2022/04/01 12:19:22;;;;;;;7.10;4.07;;;;;;;19.39;57.31;98687.78;5011391;28;20413;-76